Time;durP1;ratioP1;P1;durP2;ratioP2;P2;SDS_P1;SDS_P2;PMS_P1;PMS_P2;Temp;Humidity;BMP_temperature;BMP_pressure;BME280_temperature;BME280_humidity;BME280_pressure;Samples;Min_cycle;Max_cycle;Signal;HPM_P1;HPM_P2
2021/08/05 00:00:28;;;;;;;10.90;7.60;;;;;;;18.13;74.25;101065.97;5032019;28;20408;-61
2021/08/05 00:02:56;;;;;;;11.60;7.45;;;;;;;18.06;74.73;101057.34;5031843;28;20045;-60
2021/08/05 00:05:24;;;;;;;10.05;7.63;;;;;;;18.00;74.93;101058.59;5038421;28;20049;-62
2021/08/05 00:07:51;;;;;;;10.75;8.32;;;;;;;17.94;75.16;101051.56;5038038;28;20038;-63
2021/08/05 00:10:19;;;;;;;10.02;7.47;;;;;;;17.93;75.19;101055.47;5031785;28;20049;-61
2021/08/05 00:12:47;;;;;;;11.85;8.32;;;;;;;17.97;75.34;101056.47;5031744;28;20504;-63
2021/08/05 00:15:15;;;;;;;11.77;8.77;;;;;;;18.01;75.18;101055.50;5031585;28;20037;-61
2021/08/05 00:17:42;;;;;;;11.85;8.30;;;;;;;18.07;75.07;101050.72;5031853;28;20107;-63
2021/08/05 00:20:12;;;;;;;13.02;8.80;;;;;;;18.12;75.11;101047.81;5031882;28;20040;-62
2021/08/05 00:22:40;;;;;;;13.65;8.73;;;;;;;18.16;74.92;101048.00;5032144;28;20053;-62
2021/08/05 00:25:08;;;;;;;14.15;9.02;;;;;;;18.15;74.53;101047.19;5031450;28;20053;-62
2021/08/05 00:27:36;;;;;;;11.60;8.48;;;;;;;18.12;74.64;101050.59;5031667;28;20372;-62
2021/08/05 00:30:10;;;;;;;12.80;8.57;;;;;;;18.07;75.10;101046.00;5031476;28;20515;-63
2021/08/05 00:32:37;;;;;;;11.20;8.35;;;;;;;18.02;75.41;101048.09;5031838;28;20049;-61
2021/08/05 00:35:06;;;;;;;11.75;8.73;;;;;;;18.00;75.14;101053.91;5044079;28;20075;-63
2021/08/05 00:37:34;;;;;;;10.85;8.40;;;;;;;17.99;75.49;101048.69;5030458;28;20492;-58
2021/08/05 00:40:04;;;;;;;11.60;8.45;;;;;;;17.99;75.48;101041.25;5042949;28;20458;-63
2021/08/05 00:42:32;;;;;;;10.73;7.85;;;;;;;17.99;75.53;101044.00;5032235;28;20041;-61
2021/08/05 00:44:59;;;;;;;11.43;7.97;;;;;;;17.99;75.63;101038.50;5038274;28;20087;-63
2021/08/05 00:47:28;;;;;;;13.73;8.75;;;;;;;17.97;75.62;101040.75;5035998;28;20553;-59
2021/08/05 00:49:57;;;;;;;11.05;8.02;;;;;;;17.96;75.73;101038.28;5036902;28;20044;-58
2021/08/05 00:52:26;;;;;;;11.10;8.13;;;;;;;17.98;75.63;101036.03;5037672;28;20052;-58
2021/08/05 00:54:53;;;;;;;10.75;8.10;;;;;;;17.99;75.72;101032.97;5044131;28;20041;-63
2021/08/05 00:57:22;;;;;;;9.43;7.60;;;;;;;18.01;75.84;101027.94;5042106;28;20491;-60
2021/08/05 00:59:49;;;;;;;10.18;7.30;;;;;;;18.02;75.76;101031.53;5033204;28;20441;-62
2021/08/05 01:02:20;;;;;;;10.27;7.50;;;;;;;18.05;75.68;101025.38;5040502;28;20395;-59
2021/08/05 01:04:52;;;;;;;10.80;7.55;;;;;;;18.06;75.96;101021.50;5034496;28;20056;-62
2021/08/05 01:07:26;;;;;;;10.13;7.43;;;;;;;18.02;75.95;101018.56;5020256;28;20041;-61
2021/08/05 01:10:03;;;;;;;10.85;8.00;;;;;;;17.97;76.17;101017.88;5047209;28;20049;-60
2021/08/05 01:12:49;;;;;;;9.50;6.85;;;;;;;17.95;76.59;101015.44;5033726;28;20408;-60
2021/08/05 01:15:25;;;;;;;10.80;6.88;;;;;;;17.98;76.54;101013.97;5047686;28;20622;-59
2021/08/05 01:18:07;;;;;;;9.38;7.30;;;;;;;18.00;76.39;101017.25;5026959;28;20057;-60
2021/08/05 01:20:34;;;;;;;12.82;7.13;;;;;;;18.02;76.64;101020.50;5023949;28;20890;-61
2021/08/05 01:23:30;;;;;;;10.40;7.15;;;;;;;18.05;76.39;101022.63;5056908;28;20065;-60
2021/08/05 01:26:11;;;;;;;9.63;7.13;;;;;;;18.06;76.22;101015.97;5034998;28;20116;-55
2021/08/05 01:28:42;;;;;;;10.43;6.97;;;;;;;18.03;76.40;101017.41;5034502;28;20036;-60
2021/08/05 01:31:10;;;;;;;12.55;6.85;;;;;;;18.02;76.49;101017.75;5032703;28;20055;-59
2021/08/05 01:33:38;;;;;;;11.13;7.28;;;;;;;18.00;76.57;101017.25;5034016;28;20045;-60
2021/08/05 01:36:06;;;;;;;10.93;7.43;;;;;;;17.97;76.82;101015.13;5034750;28;20235;-60
2021/08/05 01:38:35;;;;;;;11.38;7.65;;;;;;;17.94;77.03;101012.97;5044041;28;20534;-61
2021/08/05 01:41:05;;;;;;;12.80;7.85;;;;;;;17.92;77.22;101010.53;5031186;28;20050;-61
2021/08/05 01:43:34;;;;;;;9.60;7.00;;;;;;;17.92;77.44;101005.03;5017349;28;20042;-61
2021/08/05 01:46:02;;;;;;;9.80;7.32;;;;;;;17.90;77.37;101001.78;5017259;28;20103;-61
2021/08/05 01:48:32;;;;;;;12.40;7.20;;;;;;;17.86;77.34;101007.06;5021586;28;20080;-61
2021/08/05 01:51:00;;;;;;;10.35;7.40;;;;;;;17.82;77.04;101003.34;5036152;28;20123;-61
2021/08/05 01:53:28;;;;;;;10.18;7.25;;;;;;;17.80;77.53;101008.34;5033043;28;20045;-63
2021/08/05 01:55:56;;;;;;;11.90;7.30;;;;;;;17.78;77.52;100994.03;5033148;28;20049;-60
2021/08/05 01:58:25;;;;;;;9.73;7.43;;;;;;;17.77;77.38;100997.88;5038412;28;20040;-62
2021/08/05 02:00:54;;;;;;;10.55;7.50;;;;;;;17.75;77.43;100999.34;5041159;28;20044;-61
2021/08/05 02:03:22;;;;;;;11.52;7.40;;;;;;;17.75;77.07;101000.16;5032686;28;20049;-62
2021/08/05 02:06:09;;;;;;;13.30;7.80;;;;;;;17.76;77.09;101000.97;5033689;28;20056;-61
2021/08/05 02:08:57;;;;;;;10.38;7.78;;;;;;;17.73;77.28;100996.09;5037209;28;20044;-59
2021/08/05 02:11:30;;;;;;;10.05;7.25;;;;;;;17.73;77.51;100994.16;5038612;28;20107;-62
2021/08/05 02:14:00;;;;;;;12.02;7.28;;;;;;;17.70;77.75;101002.22;5039404;28;20045;-62
2021/08/05 02:16:29;;;;;;;11.20;7.60;;;;;;;17.69;77.79;100995.91;5032824;28;20143;-58
2021/08/05 02:18:58;;;;;;;11.25;7.47;;;;;;;17.72;78.02;100992.50;5033264;28;20048;-61
2021/08/05 02:21:26;;;;;;;11.85;8.10;;;;;;;17.72;77.67;100995.25;5032099;28;20045;-62
2021/08/05 02:23:58;;;;;;;9.40;7.35;;;;;;;17.68;78.05;100994.28;5034574;28;20041;-62
2021/08/05 02:26:26;;;;;;;10.18;6.85;;;;;;;17.68;78.29;100994.28;5041039;28;20765;-63
2021/08/05 02:28:54;;;;;;;10.68;7.45;;;;;;;17.69;78.08;100995.91;5030199;28;20031;-64
2021/08/05 02:31:22;;;;;;;10.55;7.72;;;;;;;17.67;77.95;100984.38;5035599;28;20064;-60
2021/08/05 02:33:50;;;;;;;14.93;8.07;;;;;;;17.63;77.91;100988.84;5050556;28;20055;-62
2021/08/05 02:36:18;;;;;;;11.05;7.68;;;;;;;17.56;78.16;100983.81;5031442;28;20496;-63
2021/08/05 02:38:46;;;;;;;11.05;7.63;;;;;;;17.52;77.58;100984.72;5031574;28;20057;-59
2021/08/05 02:41:14;;;;;;;11.82;8.23;;;;;;;17.45;77.97;100983.22;5032501;28;20077;-60
2021/08/05 02:43:43;;;;;;;12.27;8.00;;;;;;;17.43;78.11;100979.94;5033543;28;20049;-60
2021/08/05 02:46:11;;;;;;;11.63;8.00;;;;;;;17.48;78.31;100980.97;5031704;28;20437;-59
2021/08/05 02:48:39;;;;;;;10.00;8.13;;;;;;;17.51;78.08;100980.34;5032158;28;20562;-61
2021/08/05 02:51:07;;;;;;;10.77;7.47;;;;;;;17.49;77.83;100979.84;5029303;28;20132;-60
2021/08/05 02:53:35;;;;;;;15.13;8.02;;;;;;;17.43;78.02;100971.69;5033205;28;20046;-61
2021/08/05 02:56:03;;;;;;;11.65;7.57;;;;;;;17.42;78.31;100964.56;5031929;28;20044;-61
2021/08/05 02:58:30;;;;;;;10.43;7.30;;;;;;;17.48;78.39;100972.69;5033240;28;20045;-62
2021/08/05 03:00:58;;;;;;;10.00;7.10;;;;;;;17.51;78.04;100977.56;5026451;28;20049;-60
2021/08/05 03:03:26;;;;;;;11.48;8.55;;;;;;;17.52;78.10;100970.97;5032644;28;20496;-58
2021/08/05 03:05:55;;;;;;;10.60;8.43;;;;;;;17.50;77.85;100970.44;5032475;28;20492;-61
2021/08/05 03:08:23;;;;;;;12.65;8.68;;;;;;;17.43;78.18;100968.91;5032720;28;20061;-62
2021/08/05 03:10:52;;;;;;;12.55;8.60;;;;;;;17.40;78.23;100968.75;5032860;28;20125;-60
2021/08/05 03:13:19;;;;;;;10.45;8.13;;;;;;;17.40;78.27;100969.56;5032598;28;20100;-61
2021/08/05 03:15:47;;;;;;;11.57;8.93;;;;;;;17.39;78.11;100961.59;5042505;28;20500;-61
2021/08/05 03:18:14;;;;;;;11.90;9.20;;;;;;;17.35;78.47;100958.66;5044552;28;20052;-61
2021/08/05 03:20:43;;;;;;;11.63;9.20;;;;;;;17.31;78.91;100963.16;5041691;28;20065;-60
2021/08/05 03:23:10;;;;;;;13.50;9.82;;;;;;;17.29;79.05;100959.06;5037053;28;20049;-61
2021/08/05 03:25:38;;;;;;;11.90;9.90;;;;;;;17.30;78.95;100956.03;5032524;28;20049;-61
2021/08/05 03:28:05;;;;;;;12.77;9.05;;;;;;;17.34;79.00;100957.03;5044950;28;20048;-61
2021/08/05 03:30:33;;;;;;;14.95;10.30;;;;;;;17.39;78.36;100948.66;5046892;28;20041;-60
2021/08/05 03:33:00;;;;;;;17.50;11.10;;;;;;;17.36;77.93;100946.50;5032057;28;20033;-59
2021/08/05 03:35:28;;;;;;;12.23;10.35;;;;;;;17.30;78.05;100945.00;5030857;28;20057;-60
2021/08/05 03:37:56;;;;;;;13.77;10.80;;;;;;;17.25;78.23;100943.19;5032697;28;20033;-60
2021/08/05 03:40:23;;;;;;;16.15;10.63;;;;;;;17.20;78.34;100946.06;5032620;28;20045;-58
2021/08/05 03:42:51;;;;;;;11.90;9.95;;;;;;;17.20;78.34;100946.06;5032554;28;20029;-59
2021/08/05 03:45:18;;;;;;;11.30;9.90;;;;;;;17.25;78.40;100942.38;5032435;28;20038;-59
2021/08/05 03:47:46;;;;;;;15.48;9.82;;;;;;;17.30;78.51;100939.50;5031925;28;20044;-60
2021/08/05 03:50:14;;;;;;;13.05;10.50;;;;;;;17.35;78.10;100944.06;5036848;28;20060;-61
2021/08/05 03:52:42;;;;;;;13.20;9.90;;;;;;;17.38;77.84;100937.94;5040915;28;20056;-60
2021/08/05 03:55:13;;;;;;;13.10;10.43;;;;;;;17.38;77.80;100933.25;5032246;28;20080;-62
2021/08/05 03:57:41;;;;;;;14.70;10.57;;;;;;;17.34;77.66;100932.25;5032241;28;20041;-61
2021/08/05 04:00:11;;;;;;;14.32;9.35;;;;;;;17.36;77.56;100932.72;5031791;28;20087;-60
2021/08/05 04:02:40;;;;;;;13.80;10.07;;;;;;;17.39;77.78;100937.63;5039486;28;20493;-60
2021/08/05 04:05:08;;;;;;;14.50;9.85;;;;;;;17.41;77.69;100935.41;5036423;28;20129;-60
2021/08/05 04:07:36;;;;;;;15.63;10.10;;;;;;;17.43;77.45;100935.88;5032315;28;20048;-59
2021/08/05 04:10:04;;;;;;;13.32;8.65;;;;;;;17.45;77.45;100933.63;5031836;28;20117;-60
2021/08/05 04:12:32;;;;;;;14.88;9.23;;;;;;;17.45;77.18;100936.38;5032194;28;20065;-63
2021/08/05 04:15:00;;;;;;;12.80;9.68;;;;;;;17.46;77.24;100937.19;5031721;28;20399;-61
2021/08/05 04:17:27;;;;;;;14.45;9.20;;;;;;;17.44;76.98;100940.28;5031471;28;20047;-59
2021/08/05 04:19:55;;;;;;;11.30;9.05;;;;;;;17.43;77.24;100938.63;5032090;28;20041;-60
2021/08/05 04:22:22;;;;;;;16.48;9.32;;;;;;;17.43;77.09;100941.38;5032038;28;20037;-60
2021/08/05 04:24:51;;;;;;;12.80;8.98;;;;;;;17.43;77.19;100946.88;5032028;28;20500;-60
2021/08/05 04:27:18;;;;;;;11.63;8.68;;;;;;;17.45;77.30;100946.59;5031667;28;20519;-60
2021/08/05 04:29:46;;;;;;;15.15;11.07;;;;;;;17.46;76.91;100948.19;5031802;28;20041;-60
2021/08/05 04:32:13;;;;;;;22.35;11.02;;;;;;;17.43;76.28;100944.13;5030968;28;20500;-62
2021/08/05 04:34:41;;;;;;;15.05;11.15;;;;;;;17.39;75.95;100942.31;5031997;28;20052;-62
2021/08/05 04:37:09;;;;;;;15.50;10.63;;;;;;;17.34;76.00;100943.28;5031449;28;20048;-61
2021/08/05 04:39:38;;;;;;;15.40;11.45;;;;;;;17.31;76.46;100934.81;5030946;28;20045;-60
2021/08/05 04:42:06;;;;;;;17.75;11.45;;;;;;;17.27;76.93;100934.63;5032391;28;20041;-61
2021/08/05 04:44:34;;;;;;;15.88;11.27;;;;;;;17.27;77.00;100934.63;5035277;28;20033;-60
2021/08/05 04:47:01;;;;;;;14.35;11.27;;;;;;;17.32;76.98;100936.41;5034916;28;20523;-61
2021/08/05 04:49:29;;;;;;;16.85;11.73;;;;;;;17.31;77.11;100937.56;5035473;28;20091;-60
2021/08/05 04:51:58;;;;;;;15.23;10.73;;;;;;;17.31;77.03;100935.59;5035537;28;20044;-59
2021/08/05 04:54:26;;;;;;;17.70;10.27;;;;;;;17.33;76.80;100940.81;5035208;28;20113;-62
2021/08/05 04:56:53;;;;;;;13.15;9.13;;;;;;;17.34;77.08;100929.50;5035327;28;20512;-60
2021/08/05 04:59:21;;;;;;;13.32;8.50;;;;;;;17.38;77.26;100930.47;5033482;28;20046;-60
2021/08/05 05:01:49;;;;;;;17.40;11.00;;;;;;;17.41;76.99;100929.88;5034767;28;20030;-58
2021/08/05 05:04:16;;;;;;;18.38;11.57;;;;;;;17.42;77.26;100926.00;5034666;28;20103;-59
2021/08/05 05:06:44;;;;;;;17.70;11.80;;;;;;;17.41;76.91;100929.88;5032999;28;20044;-60
2021/08/05 05:09:11;;;;;;;14.23;10.85;;;;;;;17.38;76.99;100924.97;5043880;28;20033;-54
2021/08/05 05:11:39;;;;;;;12.73;10.52;;;;;;;17.34;77.54;100918.47;5041322;28;20033;-60
2021/08/05 05:14:07;;;;;;;16.30;12.32;;;;;;;17.33;77.37;100914.09;5042773;28;20041;-58
2021/08/05 05:16:34;;;;;;;11.02;9.00;;;;;;;17.31;77.61;100918.28;5042256;28;20075;-59
2021/08/05 05:19:02;;;;;;;15.77;11.13;;;;;;;17.31;78.01;100915.53;5040921;28;20078;-59
2021/08/05 05:21:29;;;;;;;13.88;11.30;;;;;;;17.34;77.80;100918.47;5043849;28;20049;-58
2021/08/05 05:23:57;;;;;;;14.13;10.00;;;;;;;17.38;77.71;100918.66;5039726;28;20033;-59
2021/08/05 05:26:25;;;;;;;16.83;11.10;;;;;;;17.41;77.13;100913.34;5045000;28;20048;-57
2021/08/05 05:28:52;;;;;;;15.68;11.13;;;;;;;17.43;76.78;100916.59;5042891;28;20045;-60
2021/08/05 05:31:20;;;;;;;15.77;12.98;;;;;;;17.43;76.86;100916.59;5048431;28;20067;-59
2021/08/05 05:33:48;;;;;;;12.82;10.52;;;;;;;17.42;76.55;100917.72;5043737;28;20060;-59
2021/08/05 05:36:15;;;;;;;13.65;11.45;;;;;;;17.44;76.56;100914.66;5034097;28;20061;-60
2021/08/05 05:38:43;;;;;;;15.18;11.20;;;;;;;17.46;76.58;100912.41;5033906;28;20052;-58
2021/08/05 05:41:10;;;;;;;17.92;14.23;;;;;;;17.46;76.20;100921.50;5034283;28;20041;-58
2021/08/05 05:43:38;;;;;;;15.85;13.05;;;;;;;17.47;76.20;100919.56;5034282;28;20041;-59
2021/08/05 05:46:07;;;;;;;16.02;13.35;;;;;;;17.45;76.30;100914.34;5033542;28;20049;-58
2021/08/05 05:48:35;;;;;;;22.15;18.80;;;;;;;17.45;75.98;100910.78;5033937;28;20496;-56
2021/08/05 05:51:02;;;;;;;19.48;15.52;;;;;;;17.45;75.93;100919.84;5034030;28;20037;-54
2021/08/05 05:53:30;;;;;;;15.15;13.15;;;;;;;17.46;75.96;100912.41;4340797;28;10000796;-58
2021/08/05 05:55:57;;;;;;;15.27;13.63;;;;;;;17.46;75.96;100920.66;5031450;28;20042;-59
2021/08/05 05:58:25;;;;;;;16.15;12.10;;;;;;;17.49;76.08;100920.06;5031388;28;20048;-58
2021/08/05 06:00:52;;;;;;;16.02;12.02;;;;;;;17.50;76.18;100918.09;5037897;28;20037;-57
2021/08/05 06:03:20;;;;;;;16.33;13.30;;;;;;;17.49;76.20;100919.25;5039423;28;20049;-58
2021/08/05 06:05:48;;;;;;;20.33;13.55;;;;;;;17.48;76.20;100917.59;5042616;28;20490;-59
2021/08/05 06:08:16;;;;;;;16.42;14.63;;;;;;;17.49;76.22;100920.06;5039686;28;20049;-60
2021/08/05 06:10:43;;;;;;;16.17;13.70;;;;;;;17.50;76.30;100923.63;5043122;28;20099;-56
2021/08/05 06:13:11;;;;;;;17.10;13.45;;;;;;;17.53;76.05;100925.75;5036829;28;20404;-54
2021/08/05 06:15:38;;;;;;;17.10;13.07;;;;;;;17.55;76.01;100926.25;5035230;28;20041;-59
2021/08/05 06:18:06;;;;;;;18.30;15.10;;;;;;;17.57;75.91;100932.25;5039022;28;20450;-59
2021/08/05 06:20:34;;;;;;;21.58;16.85;;;;;;;17.56;75.64;100931.44;5036760;28;20053;-59
2021/08/05 06:23:03;;;;;;;24.10;17.85;;;;;;;17.56;75.80;100925.13;5046014;28;20037;-60
2021/08/05 06:25:30;;;;;;;21.85;18.50;;;;;;;17.55;75.49;100927.06;5037292;28;20053;-62
2021/08/05 06:27:58;;;;;;;23.48;19.75;;;;;;;17.52;75.86;100930.44;5039842;28;20045;-61
2021/08/05 06:30:25;;;;;;;24.13;19.90;;;;;;;17.48;75.67;100925.88;5037220;28;20037;-61
2021/08/05 06:32:53;;;;;;;22.40;20.10;;;;;;;17.44;75.60;100928.44;5038442;28;20045;-58
2021/08/05 06:35:21;;;;;;;24.25;19.63;;;;;;;17.43;75.52;100926.78;5035371;28;20132;-62
2021/08/05 06:37:49;;;;;;;23.77;19.10;;;;;;;17.46;75.69;100926.16;5046664;28;20484;-62
2021/08/05 06:40:17;;;;;;;20.85;15.13;;;;;;;17.48;75.21;100928.63;5033373;28;20137;-58
2021/08/05 06:42:45;;;;;;;23.08;20.33;;;;;;;17.51;75.29;100922.47;5032985;28;20038;-57
2021/08/05 06:45:13;;;;;;;25.08;22.48;;;;;;;17.51;75.58;100916.97;5033577;28;20041;-60
2021/08/05 06:47:44;;;;;;;25.70;18.67;;;;;;;17.53;75.51;100920.22;5033055;28;20041;-60
2021/08/05 06:50:14;;;;;;;24.13;18.27;;;;;;;17.55;75.20;100917.97;5044060;28;20037;-57
2021/08/05 06:52:42;;;;;;;25.83;21.65;;;;;;;17.56;75.19;100911.34;5038643;28;22167;-60
2021/08/05 06:55:10;;;;;;;26.00;22.77;;;;;;;17.55;75.28;100912.47;5043802;28;20064;-59
2021/08/05 06:57:38;;;;;;;25.63;22.67;;;;;;;17.53;75.08;100914.72;5032589;28;20049;-57
2021/08/05 07:00:06;;;;;;;26.42;21.70;;;;;;;17.52;75.17;100913.09;5032718;28;20049;-60
2021/08/05 07:02:33;;;;;;;21.02;18.77;;;;;;;17.56;75.18;100914.13;5032899;28;20043;-57
2021/08/05 07:05:02;;;;;;;24.15;21.30;;;;;;;17.60;75.44;100920.59;5038851;28;20063;-57
2021/08/05 07:07:30;;;;;;;27.48;24.33;;;;;;;17.63;75.29;100915.31;5039950;28;20053;-59
2021/08/05 07:09:58;;;;;;;27.10;22.92;;;;;;;17.68;75.01;100919.88;5032456;28;20045;-55
2021/08/05 07:12:26;;;;;;;28.92;23.52;;;;;;;17.72;74.47;100920.03;5031456;28;20045;-56
2021/08/05 07:14:54;;;;;;;22.00;16.98;;;;;;;17.75;74.52;100923.00;5032610;28;20052;-56
2021/08/05 07:17:21;;;;;;;30.40;26.30;;;;;;;17.79;74.08;100912.97;5032567;28;20042;-58
2021/08/05 07:19:49;;;;;;;31.02;27.73;;;;;;;17.80;73.74;100914.63;5032733;28;20049;-57
2021/08/05 07:22:17;;;;;;;24.83;22.17;;;;;;;17.85;73.32;100910.94;5032382;28;20065;-59
2021/08/05 07:24:45;;;;;;;29.58;26.38;;;;;;;17.88;73.32;100900.06;5032351;28;20052;-57
2021/08/05 07:27:17;;;;;;;28.00;25.10;;;;;;;17.91;73.70;100903.34;5032621;28;20052;-56
2021/08/05 07:29:45;;;;;;;30.23;26.42;;;;;;;17.95;73.55;100904.34;5032063;28;20044;-56
2021/08/05 07:32:13;;;;;;;27.83;24.60;;;;;;;18.00;73.05;100901.44;5032814;28;20041;-56
2021/08/05 07:34:40;;;;;;;27.17;24.23;;;;;;;18.00;72.70;100905.00;5032350;28;20046;-59
2021/08/05 07:37:09;;;;;;;24.70;22.02;;;;;;;18.02;72.79;100902.75;5032068;28;20076;-56
2021/08/05 07:39:37;;;;;;;27.00;21.02;;;;;;;18.04;72.60;100899.69;5032517;28;20460;-59
2021/08/05 07:42:05;;;;;;;27.88;22.52;;;;;;;18.06;72.84;100900.16;5032192;28;20057;-59
2021/08/05 07:44:32;;;;;;;24.40;21.70;;;;;;;18.06;72.35;100897.41;5032172;28;20052;-57
2021/08/05 07:47:00;;;;;;;24.30;21.52;;;;;;;18.06;72.31;100894.66;5032285;28;20052;-54
2021/08/05 07:49:27;;;;;;;23.85;20.80;;;;;;;18.06;72.27;100889.13;5031869;28;20419;-59
2021/08/05 07:51:55;;;;;;;23.73;20.65;;;;;;;18.09;72.18;100885.75;5032484;28;20041;-58
2021/08/05 07:54:23;;;;;;;22.33;19.75;;;;;;;18.13;71.89;100881.22;5031871;28;20056;-57
2021/08/05 07:56:50;;;;;;;25.05;21.95;;;;;;;18.16;71.99;100877.84;5032113;28;20135;-59
2021/08/05 07:59:18;;;;;;;20.63;17.67;;;;;;;18.19;71.93;100879.97;5032171;28;20076;-58
2021/08/05 08:01:45;;;;;;;26.80;22.65;;;;;;;18.22;72.38;100887.59;5031824;28;20033;-59
2021/08/05 08:04:13;;;;;;;25.25;21.70;;;;;;;18.24;72.38;100879.81;5031794;28;20073;-59
2021/08/05 08:06:41;;;;;;;23.30;19.95;;;;;;;18.29;71.75;100881.63;5031922;28;20045;-59
2021/08/05 08:09:08;;;;;;;23.13;19.70;;;;;;;18.31;71.40;100880.16;5031202;28;20038;-59
2021/08/05 08:11:36;;;;;;;18.88;14.68;;;;;;;18.35;71.28;100866.56;5049282;28;20041;-59
2021/08/05 08:14:04;;;;;;;17.67;13.02;;;;;;;18.40;71.40;100871.94;5051024;28;20408;-58
2021/08/05 08:16:32;;;;;;;23.38;19.52;;;;;;;18.42;71.22;100869.66;5048100;28;20389;-57
2021/08/05 08:19:00;;;;;;;23.63;19.92;;;;;;;18.44;70.64;100866.56;5044486;28;20470;-59
2021/08/05 08:21:27;;;;;;;14.18;12.40;;;;;;;18.46;70.68;100869.84;5055089;28;20041;-60
2021/08/05 08:23:55;;;;;;;23.98;17.05;;;;;;;18.49;71.04;100864.47;5055045;28;20045;-57
2021/08/05 08:26:23;;;;;;;24.95;18.83;;;;;;;18.53;70.43;100864.66;5055241;28;20059;-55
2021/08/05 08:28:51;;;;;;;21.75;18.75;;;;;;;18.55;69.70;100862.41;5042034;28;20039;-58
2021/08/05 08:31:19;;;;;;;23.23;16.40;;;;;;;18.57;69.33;100862.91;5055087;28;20415;-57
2021/08/05 08:33:46;;;;;;;26.10;19.70;;;;;;;18.58;69.37;100867.28;5053764;28;20048;-58
2021/08/05 08:36:14;;;;;;;20.25;17.70;;;;;;;18.61;69.34;100865.81;5035472;28;20488;-58
2021/08/05 08:38:43;;;;;;;21.98;14.02;;;;;;;18.66;69.43;100863.69;5035220;28;20056;-56
2021/08/05 08:41:14;;;;;;;17.35;14.73;;;;;;;18.67;69.38;100865.34;5042093;28;20133;-59
2021/08/05 08:43:41;;;;;;;21.52;15.93;;;;;;;18.69;69.04;100865.03;5044126;28;20124;-61
2021/08/05 08:46:10;;;;;;;19.17;14.38;;;;;;;18.73;69.02;100871.50;5036627;28;20047;-60
2021/08/05 08:48:41;;;;;;;19.17;15.48;;;;;;;18.78;69.08;100876.09;5035211;28;20107;-61
2021/08/05 08:51:09;;;;;;;20.00;16.17;;;;;;;18.82;69.03;100872.38;5034276;28;20041;-60
2021/08/05 08:53:37;;;;;;;17.55;13.80;;;;;;;18.84;69.05;100874.81;5034434;28;20057;-61
2021/08/05 08:56:08;;;;;;;23.27;18.33;;;;;;;18.83;67.63;100862.16;5036082;28;20053;-62
2021/08/05 08:58:36;;;;;;;21.95;19.27;;;;;;;18.82;67.22;100866.06;5035204;28;20054;-61
2021/08/05 09:01:04;;;;;;;26.50;18.70;;;;;;;18.84;68.15;100858.25;5034046;28;20033;-60
2021/08/05 09:03:33;;;;;;;22.92;19.17;;;;;;;18.86;66.95;100864.28;5034623;28;20095;-59
2021/08/05 09:06:01;;;;;;;20.50;16.85;;;;;;;18.89;67.08;100861.66;5038751;28;20039;-61
2021/08/05 09:08:29;;;;;;;19.77;15.90;;;;;;;18.92;66.72;100861.00;5038922;28;20052;-61
2021/08/05 09:10:58;;;;;;;19.52;16.80;;;;;;;18.99;65.99;100852.25;5035053;28;20056;-61
2021/08/05 09:13:25;;;;;;;18.13;14.35;;;;;;;19.04;65.66;100846.56;5035006;28;20038;-61
2021/08/05 09:15:53;;;;;;;17.77;14.20;;;;;;;19.11;66.09;100843.31;5040083;28;20045;-61
2021/08/05 09:18:35;;;;;;;20.85;17.67;;;;;;;19.17;66.25;100844.81;5039434;28;20045;-58
2021/08/05 09:21:21;;;;;;;20.67;17.38;;;;;;;19.22;66.35;100841.88;5040656;28;20401;-61
2021/08/05 09:24:01;;;;;;;17.83;15.18;;;;;;;19.24;65.96;100845.13;5038225;28;20060;-59
2021/08/05 09:26:31;;;;;;;19.98;17.33;;;;;;;19.28;66.23;100845.28;5042596;28;20037;-60
2021/08/05 09:29:02;;;;;;;20.55;18.25;;;;;;;19.34;66.84;100843.97;5044977;28;20068;-60
2021/08/05 09:31:30;;;;;;;25.98;21.45;;;;;;;19.41;66.35;100838.75;5043789;28;20041;-59
2021/08/05 09:34:05;;;;;;;27.55;21.63;;;;;;;19.46;65.64;100838.59;5038221;28;20040;-56
2021/08/05 09:36:33;;;;;;;21.92;18.75;;;;;;;19.51;64.58;100830.13;5033777;28;20057;-58
2021/08/05 09:39:00;;;;;;;24.13;19.20;;;;;;;19.56;64.54;100832.72;5034205;28;20041;-60
2021/08/05 09:41:28;;;;;;;21.90;17.92;;;;;;;19.62;64.24;100822.28;5034494;28;20046;-60
2021/08/05 09:44:03;;;;;;;25.98;20.20;;;;;;;19.65;63.62;100826.34;5034295;28;20042;-57
2021/08/05 09:46:32;;;;;;;19.52;15.07;;;;;;;19.67;63.66;100824.06;5034203;28;20046;-61
2021/08/05 09:49:00;;;;;;;25.55;19.95;;;;;;;19.70;62.78;100823.41;5034144;28;20033;-62
2021/08/05 09:51:28;;;;;;;22.63;20.17;;;;;;;19.73;62.77;100815.28;5033497;28;20111;-60
2021/08/05 09:53:58;;;;;;;24.27;18.95;;;;;;;19.78;63.13;100817.06;5034164;28;20065;-60
2021/08/05 09:56:27;;;;;;;20.52;18.25;;;;;;;19.83;62.73;100816.88;5033894;28;20519;-59
2021/08/05 09:59:11;;;;;;;18.45;13.90;;;;;;;19.84;63.36;100801.91;5034051;28;20065;-60
2021/08/05 10:02:00;;;;;;;27.42;22.08;;;;;;;19.94;62.54;100807.09;5040236;28;20064;-59
2021/08/05 10:04:33;;;;;;;27.73;21.95;;;;;;;20.02;60.52;100807.38;5038011;28;20416;-54
2021/08/05 10:07:06;;;;;;;25.52;21.65;;;;;;;20.08;59.09;100808.81;5032723;28;20030;-60
2021/08/05 10:09:36;;;;;;;22.95;17.40;;;;;;;20.10;61.05;100809.28;5033868;28;20063;-57
2021/08/05 10:12:21;;;;;;;23.30;19.55;;;;;;;20.07;61.48;100804.44;5034221;28;20049;-60
2021/08/05 10:14:50;;;;;;;24.35;21.42;;;;;;;20.02;61.56;100807.38;5033896;28;20432;-58
2021/08/05 10:17:20;;;;;;;23.17;18.15;;;;;;;20.02;62.08;100801.84;5033575;28;20099;-58
2021/08/05 10:19:48;;;;;;;25.15;22.48;;;;;;;20.04;62.17;100794.03;5033159;28;20122;-58
2021/08/05 10:22:18;;;;;;;24.55;21.33;;;;;;;20.13;62.01;100786.50;5033819;28;20048;-56
2021/08/05 10:24:51;;;;;;;20.02;16.85;;;;;;;20.17;61.32;100791.03;5033555;28;20045;-56
2021/08/05 10:27:20;;;;;;;23.65;16.75;;;;;;;20.19;61.11;100787.94;5033498;28;20447;-59
2021/08/05 10:29:50;;;;;;;15.10;11.23;;;;;;;20.22;61.35;100787.25;5033250;28;20045;-57
2021/08/05 10:32:19;;;;;;;21.85;17.50;;;;;;;20.29;59.39;100778.44;4343022;28;10000558;-56
2021/08/05 10:34:47;;;;;;;25.65;20.50;;;;;;;20.31;58.56;100776.94;5030732;28;20086;-58
2021/08/05 10:37:16;;;;;;;25.67;22.73;;;;;;;20.38;58.94;100781.97;5027548;28;20052;-59
2021/08/05 10:39:46;;;;;;;25.95;20.95;;;;;;;20.49;58.20;100774.88;5031601;28;20072;-57
2021/08/05 10:42:17;;;;;;;25.85;19.60;;;;;;;20.61;58.66;100779.69;5030888;28;20037;-59
2021/08/05 10:44:49;;;;;;;23.75;21.02;;;;;;;20.67;58.48;100764.53;5031512;28;20049;-61
2021/08/05 10:47:29;;;;;;;24.58;19.70;;;;;;;20.72;58.27;100767.09;5031955;28;20049;-59
2021/08/05 10:50:01;;;;;;;20.13;15.48;;;;;;;20.76;58.75;100770.00;5031310;28;20064;-60
2021/08/05 10:52:38;;;;;;;20.73;16.70;;;;;;;20.77;57.56;100766.06;5033184;28;20068;-59
2021/08/05 10:55:21;;;;;;;19.63;15.43;;;;;;;20.77;57.95;100766.88;5033194;28;20051;-60
2021/08/05 10:58:10;;;;;;;22.38;18.23;;;;;;;20.81;58.20;100762.28;5032829;28;20056;-59
2021/08/05 11:00:50;;;;;;;20.63;17.95;;;;;;;20.83;56.91;100748.91;4682886;28;9999772;-59
2021/08/05 11:03:35;;;;;;;19.50;17.15;;;;;;;20.82;59.04;100758.34;5030556;28;20080;-59
2021/08/05 11:06:26;;;;;;;20.30;14.75;;;;;;;20.82;57.07;100749.25;5030530;28;20045;-59
2021/08/05 11:08:54;;;;;;;27.13;17.27;;;;;;;20.80;55.71;100754.31;5030622;28;20049;-60
2021/08/05 11:11:22;;;;;;;16.70;13.02;;;;;;;20.86;54.16;100747.44;5033254;28;20400;-59
2021/08/05 11:14:15;;;;;;;20.50;12.23;;;;;;;20.88;58.81;100752.59;5030211;28;20526;-56
2021/08/05 11:17:04;;;;;;;19.85;15.60;;;;;;;20.84;58.63;100747.75;4987467;28;20054;-58
2021/08/05 11:19:34;;;;;;;19.65;14.75;;;;;;;20.84;58.42;100742.22;4987641;28;20724;-59
2021/08/05 11:22:33;;;;;;;20.10;17.90;;;;;;;20.82;57.46;100743.72;5003314;28;20120;-59